createdAt,value
2018-09-14T00:03:36.066Z,86.60
2018-09-14T00:08:39.195Z,85.50
2018-09-14T00:13:42.196Z,85.60
2018-09-14T00:18:45.196Z,86.30
2018-09-14T00:23:48.167Z,86.40
2018-09-14T00:28:51.128Z,88.00
2018-09-14T00:33:54.162Z,86.70
2018-09-14T00:38:57.159Z,86.60
2018-09-14T00:44:00.148Z,87.10
2018-09-14T00:49:04.182Z,87.70
2018-09-14T00:54:07.548Z,87.90
2018-09-14T00:59:10.560Z,87.30
2018-09-14T01:04:13.520Z,87.80
2018-09-14T01:09:22.021Z,87.50
2018-09-14T01:14:26.175Z,87.20
2018-09-14T01:19:29.176Z,87.30
2018-09-14T01:24:32.219Z,88.10
2018-09-14T01:29:35.411Z,89.20
2018-09-14T01:34:38.401Z,89.60
2018-09-14T01:39:41.470Z,89.50
2018-09-14T01:44:44.459Z,88.40
2018-09-14T01:49:47.427Z,88.30
2018-09-14T01:54:50.631Z,86.40
2018-09-14T01:59:53.851Z,86.10
2018-09-14T02:04:56.927Z,86.20
2018-09-14T02:09:59.935Z,85.50
2018-09-14T02:15:03.550Z,84.40
2018-09-14T02:20:06.536Z,84.10
2018-09-14T02:25:09.817Z,83.90
2018-09-14T02:30:12.868Z,85.00
2018-09-14T02:35:15.868Z,84.00
2018-09-14T02:40:18.895Z,84.60
2018-09-14T02:45:21.913Z,84.50
2018-09-14T02:50:24.867Z,84.10
2018-09-14T02:55:27.945Z,84.40
2018-09-14T03:00:30.963Z,83.50
2018-09-14T03:05:34.404Z,83.80
2018-09-14T03:10:37.500Z,84.20
2018-09-14T03:15:40.668Z,84.50
2018-09-14T03:20:43.667Z,85.20
2018-09-14T03:25:47.015Z,85.30
2018-09-14T03:30:50.008Z,85.60
2018-09-14T03:35:52.984Z,83.70
2018-09-14T03:40:55.951Z,83.70
2018-09-14T03:45:58.931Z,84.10
2018-09-14T03:51:03.636Z,85.80
2018-09-14T03:56:06.773Z,85.80
2018-09-14T04:01:09.795Z,86.60
2018-09-14T04:06:12.731Z,87.50
2018-09-14T04:11:15.731Z,87.30
2018-09-14T04:16:18.892Z,87.10
2018-09-14T04:21:22.032Z,87.00
2018-09-14T04:26:25.784Z,87.10
2018-09-14T04:31:29.062Z,86.50
2018-09-14T04:36:32.039Z,87.00
2018-09-14T04:41:35.109Z,86.80
2018-09-14T04:46:38.118Z,87.10
2018-09-14T04:51:41.191Z,86.60
2018-09-14T04:56:44.192Z,87.20
2018-09-14T05:01:47.260Z,87.40
2018-09-14T05:06:50.229Z,88.30
2018-09-14T05:11:53.280Z,88.20
2018-09-14T05:16:56.524Z,87.30
2018-09-14T05:21:59.478Z,85.60
2018-09-14T05:27:03.359Z,85.70
2018-09-14T05:32:06.919Z,83.40
2018-09-14T05:37:10.068Z,82.40
2018-09-14T05:42:13.091Z,82.30
2018-09-14T05:47:16.162Z,82.30
2018-09-14T05:52:19.175Z,81.80
2018-09-14T05:57:22.166Z,82.10
2018-09-14T06:02:25.468Z,82.20
2018-09-14T06:07:28.516Z,81.80
2018-09-14T06:12:31.501Z,82.10
2018-09-14T06:17:34.478Z,82.50
2018-09-14T06:22:37.479Z,82.00
2018-09-14T06:27:40.752Z,80.10
2018-09-14T06:32:44.061Z,80.20
2018-09-14T06:37:47.030Z,79.50
2018-09-14T06:42:50.018Z,79.10
2018-09-14T06:47:53.034Z,77.80
2018-09-14T06:52:56.089Z,76.50
2018-09-14T06:57:59.080Z,76.40
2018-09-14T07:03:03.705Z,74.00
2018-09-14T07:08:06.751Z,72.60
2018-09-14T07:13:09.851Z,71.80
2018-09-14T07:18:12.823Z,62.90
2018-09-14T07:23:15.770Z,55.20
2018-09-14T07:28:18.901Z,53.50
2018-09-14T07:33:21.892Z,54.90
2018-09-14T07:38:25.001Z,52.20
2018-09-14T07:43:28.223Z,53.00
2018-09-14T07:48:31.332Z,55.20
2018-09-14T07:53:34.416Z,58.00
2018-09-14T07:58:37.400Z,61.80
2018-09-14T08:03:40.396Z,60.40
2018-09-14T08:08:43.454Z,58.90
2018-09-14T08:13:46.456Z,59.50
2018-09-14T08:18:49.711Z,58.90
2018-09-14T08:23:52.915Z,58.40
2018-09-14T08:28:55.861Z,60.60
2018-09-14T08:33:58.813Z,60.50
2018-09-14T08:39:03.576Z,59.80
2018-09-14T08:44:06.600Z,59.90
2018-09-14T08:49:09.568Z,58.90
2018-09-14T08:54:12.887Z,58.80
2018-09-14T08:59:15.921Z,58.20
2018-09-14T09:04:18.930Z,56.60
2018-09-14T09:09:21.932Z,56.90
2018-09-14T09:14:25.222Z,56.90
2018-09-14T09:19:28.429Z,57.10
2018-09-14T09:24:31.385Z,55.40
2018-09-14T09:29:34.463Z,54.20
2018-09-14T09:34:37.648Z,52.40
2018-09-14T09:39:40.724Z,52.30
2018-09-14T09:44:43.788Z,53.30
2018-09-14T09:49:46.960Z,51.80
2018-09-14T09:54:50.032Z,51.50
2018-09-14T09:59:53.078Z,52.00
2018-09-14T10:05:02.646Z,50.30
2018-09-14T10:10:05.745Z,51.10
2018-09-14T10:15:08.864Z,50.00
2018-09-14T10:20:11.793Z,50.30
2018-09-14T10:25:14.851Z,50.10
2018-09-14T10:30:17.808Z,47.50
2018-09-14T10:35:20.753Z,44.50
2018-09-14T10:40:23.972Z,45.10
2018-09-14T10:45:27.491Z,45.10
2018-09-14T10:50:30.468Z,42.70
2018-09-14T10:55:33.511Z,43.10
2018-09-14T11:00:36.585Z,42.70
2018-09-14T11:05:39.612Z,42.30
2018-09-14T11:10:42.599Z,42.30
2018-09-14T11:15:45.703Z,43.00
2018-09-14T11:20:48.719Z,43.00
2018-09-14T11:25:51.760Z,42.40
2018-09-14T11:30:54.811Z,42.60
2018-09-14T11:35:57.823Z,41.90
2018-09-14T11:41:01.247Z,41.20
2018-09-14T11:46:04.876Z,41.40
2018-09-14T11:51:07.968Z,42.90
2018-09-14T11:56:11.113Z,40.40
2018-09-14T12:01:14.636Z,39.20
2018-09-14T12:06:17.705Z,40.30
2018-09-14T12:11:20.759Z,41.00
2018-09-14T12:16:23.796Z,41.50
2018-09-14T12:21:26.900Z,42.20
2018-09-14T12:26:29.911Z,43.80
2018-09-14T12:31:32.994Z,44.00
2018-09-14T12:36:35.987Z,45.90
2018-09-14T12:41:39.231Z,44.60
2018-09-14T12:46:42.363Z,43.50
2018-09-14T12:51:45.592Z,43.60
2018-09-14T12:56:48.770Z,43.40
2018-09-14T13:01:51.804Z,42.50
2018-09-14T13:06:54.867Z,42.30
2018-09-14T13:11:57.991Z,42.20
2018-09-14T13:17:03.098Z,43.20
2018-09-14T13:22:06.688Z,43.70
2018-09-14T13:27:09.740Z,43.60
2018-09-14T13:32:12.890Z,42.70
2018-09-14T13:37:17.499Z,42.90
2018-09-14T13:42:20.698Z,44.90
2018-09-14T13:47:28.892Z,44.70
2018-09-14T13:52:31.880Z,44.80
2018-09-14T13:57:35.328Z,43.40
2018-09-14T14:02:38.437Z,43.50
2018-09-14T14:07:41.582Z,42.80
2018-09-14T14:12:44.627Z,43.20
2018-09-14T14:17:47.716Z,42.80
2018-09-14T14:22:50.853Z,43.00
2018-09-14T14:27:53.888Z,42.30
2018-09-14T14:32:57.037Z,42.90
2018-09-14T14:38:00.072Z,43.50
2018-09-14T14:43:03.475Z,43.80
2018-09-14T14:48:06.631Z,42.70
2018-09-14T14:53:09.854Z,42.60
2018-09-14T14:58:12.843Z,42.00
2018-09-14T15:03:15.849Z,43.70
2018-09-14T15:08:18.966Z,43.30
2018-09-14T15:13:21.958Z,43.40
2018-09-14T15:18:25.223Z,44.20
2018-09-14T15:23:28.500Z,42.90
2018-09-14T15:28:31.823Z,43.80
2018-09-14T15:33:34.924Z,43.90
2018-09-14T15:38:38.004Z,44.30
2018-09-14T15:43:41.161Z,44.90
2018-09-14T15:48:44.320Z,45.20
2018-09-14T15:53:47.378Z,45.30
2018-09-14T15:58:50.450Z,45.30
2018-09-14T16:03:53.516Z,45.10
2018-09-14T16:08:56.620Z,45.40
2018-09-14T16:13:59.782Z,45.40
2018-09-14T16:19:04.146Z,45.80
2018-09-14T16:24:07.262Z,46.10
2018-09-14T16:29:10.280Z,46.60
2018-09-14T16:34:13.396Z,46.70
2018-09-14T16:39:16.945Z,46.90
2018-09-14T16:44:19.992Z,47.50
2018-09-14T16:49:23.012Z,47.70
2018-09-14T16:54:26.147Z,48.00
2018-09-14T16:59:29.339Z,47.80
2018-09-14T17:04:32.604Z,47.90
2018-09-14T17:09:35.666Z,48.80
2018-09-14T17:14:38.786Z,49.50
2018-09-14T17:19:41.842Z,49.40
2018-09-14T17:24:45.589Z,50.50
2018-09-14T17:29:48.762Z,51.20
2018-09-14T17:34:51.886Z,51.60
2018-09-14T17:39:55.083Z,51.20
2018-09-14T17:44:58.110Z,51.20
2018-09-14T17:50:05.168Z,51.00
2018-09-14T17:55:08.591Z,51.00
2018-09-14T18:00:11.768Z,50.60
2018-09-14T18:05:14.885Z,50.80
2018-09-14T18:10:17.932Z,51.10
2018-09-14T18:15:21.023Z,52.40
2018-09-14T18:20:24.116Z,52.30
2018-09-14T18:25:27.206Z,51.90
2018-09-14T18:30:30.531Z,52.30
2018-09-14T18:35:34.037Z,51.70
2018-09-14T18:40:37.083Z,51.90
2018-09-14T18:45:40.116Z,51.90
2018-09-14T18:50:43.198Z,52.70
2018-09-14T18:55:46.668Z,53.80
2018-09-14T19:00:50.528Z,53.80
2018-09-14T19:05:53.576Z,53.70
2018-09-14T19:10:56.741Z,53.50
2018-09-14T19:15:59.935Z,54.70
2018-09-14T19:21:04.368Z,55.20
2018-09-14T19:26:07.458Z,54.40
2018-09-14T19:31:10.613Z,54.40
2018-09-14T19:36:13.762Z,54.60
2018-09-14T19:41:16.947Z,55.30
2018-09-14T19:46:20.282Z,57.10
2018-09-14T19:51:23.580Z,57.90
2018-09-14T19:56:26.592Z,58.80
2018-09-14T20:01:29.752Z,58.80
2018-09-14T20:06:32.843Z,59.40
2018-09-14T20:11:36.137Z,59.70
2018-09-14T20:16:39.540Z,58.90
2018-09-14T20:21:42.569Z,58.90
2018-09-14T20:26:45.785Z,59.70
2018-09-14T20:31:48.864Z,60.60
2018-09-14T20:36:52.072Z,60.00
2018-09-14T20:41:55.265Z,59.60
2018-09-14T20:46:58.573Z,57.80
2018-09-14T20:52:03.748Z,55.50
2018-09-14T20:57:06.783Z,55.30
2018-09-14T21:02:09.904Z,53.60
2018-09-14T21:07:13.239Z,53.40
2018-09-14T21:12:16.560Z,53.80
2018-09-14T21:17:19.683Z,53.60
2018-09-14T21:22:22.744Z,53.50
2018-09-14T21:27:25.811Z,53.70
2018-09-14T21:32:28.853Z,53.30
2018-09-14T21:37:31.859Z,53.80
2018-09-14T21:42:34.887Z,54.10
2018-09-14T21:47:37.938Z,54.10
2018-09-14T21:52:41.278Z,54.90
2018-09-14T21:57:44.350Z,55.10
2018-09-14T22:02:47.347Z,56.00
2018-09-14T22:07:50.368Z,56.20
2018-09-14T22:12:53.697Z,56.20
2018-09-14T22:17:56.715Z,56.50
2018-09-14T22:22:59.700Z,55.70
2018-09-14T22:28:05.491Z,55.90
2018-09-14T22:33:08.760Z,56.00
2018-09-14T22:38:12.028Z,55.10
2018-09-14T22:43:15.053Z,54.70
2018-09-14T22:48:18.098Z,54.80
2018-09-14T22:53:21.116Z,53.60
2018-09-14T22:58:24.207Z,55.00
2018-09-14T23:03:27.228Z,55.10
2018-09-14T23:08:30.207Z,55.40
2018-09-14T23:13:33.199Z,54.70
2018-09-14T23:18:36.197Z,55.00
2018-09-14T23:23:39.307Z,55.70
2018-09-14T23:28:42.363Z,56.80
2018-09-14T23:33:45.439Z,58.40
2018-09-14T23:38:48.408Z,58.80
2018-09-14T23:43:51.415Z,59.80
2018-09-14T23:48:54.380Z,60.30
2018-09-14T23:53:57.344Z,60.60
2018-09-14T23:59:00.336Z,60.70
